sensor_id;sensor_type;location;lat;lon;timestamp;P1;durP1;ratioP1;P2;durP2;ratioP2
74309;SDS011;62722;51.142;17.052;2022-09-12T00:01:59;10.20;;;5.80;;
74309;SDS011;62722;51.142;17.052;2022-09-12T00:04:26;10.32;;;5.97;;
74309;SDS011;62722;51.142;17.052;2022-09-12T00:06:55;8.30;;;5.53;;
74309;SDS011;62722;51.142;17.052;2022-09-12T00:09:22;8.23;;;5.60;;
74309;SDS011;62722;51.142;17.052;2022-09-12T00:11:49;9.05;;;5.20;;
74309;SDS011;62722;51.142;17.052;2022-09-12T00:14:17;11.15;;;5.80;;
74309;SDS011;62722;51.142;17.052;2022-09-12T00:16:44;7.50;;;4.85;;
74309;SDS011;62722;51.142;17.052;2022-09-12T00:19:11;10.13;;;5.88;;
74309;SDS011;62722;51.142;17.052;2022-09-12T00:21:39;9.27;;;6.45;;
74309;SDS011;62722;51.142;17.052;2022-09-12T00:24:09;8.13;;;5.97;;
74309;SDS011;62722;51.142;17.052;2022-09-12T00:29:13;8.30;;;5.55;;
74309;SDS011;62722;51.142;17.052;2022-09-12T00:31:42;10.00;;;5.90;;
74309;SDS011;62722;51.142;17.052;2022-09-12T00:34:09;8.63;;;4.90;;
74309;SDS011;62722;51.142;17.052;2022-09-12T00:36:38;9.73;;;5.18;;
74309;SDS011;62722;51.142;17.052;2022-09-12T00:39:09;9.57;;;5.40;;
74309;SDS011;62722;51.142;17.052;2022-09-12T00:47:24;9.63;;;5.18;;
74309;SDS011;62722;51.142;17.052;2022-09-12T00:49:56;8.48;;;4.88;;
74309;SDS011;62722;51.142;17.052;2022-09-12T00:52:28;10.38;;;4.57;;
74309;SDS011;62722;51.142;17.052;2022-09-12T00:55:02;8.95;;;5.00;;
74309;SDS011;62722;51.142;17.052;2022-09-12T00:57:39;7.70;;;4.95;;
74309;SDS011;62722;51.142;17.052;2022-09-12T01:00:12;8.82;;;4.57;;
74309;SDS011;62722;51.142;17.052;2022-09-12T01:02:42;7.15;;;4.60;;
74309;SDS011;62722;51.142;17.052;2022-09-12T01:05:12;6.30;;;4.32;;
74309;SDS011;62722;51.142;17.052;2022-09-12T01:07:41;8.02;;;4.65;;
74309;SDS011;62722;51.142;17.052;2022-09-12T01:10:14;7.70;;;4.45;;
74309;SDS011;62722;51.142;17.052;2022-09-12T01:12:42;8.50;;;4.50;;
74309;SDS011;62722;51.142;17.052;2022-09-12T01:15:13;8.13;;;4.70;;
74309;SDS011;62722;51.142;17.052;2022-09-12T01:17:45;7.22;;;4.40;;
74309;SDS011;62722;51.142;17.052;2022-09-12T01:26:39;7.25;;;4.60;;
74309;SDS011;62722;51.142;17.052;2022-09-12T01:32:56;6.70;;;3.85;;
74309;SDS011;62722;51.142;17.052;2022-09-12T01:35:38;7.32;;;4.80;;
74309;SDS011;62722;51.142;17.052;2022-09-12T01:38:14;6.65;;;4.68;;
74309;SDS011;62722;51.142;17.052;2022-09-12T01:40:50;8.20;;;4.43;;
74309;SDS011;62722;51.142;17.052;2022-09-12T01:43:25;6.03;;;4.05;;
74309;SDS011;62722;51.142;17.052;2022-09-12T01:46:02;7.53;;;4.35;;
74309;SDS011;62722;51.142;17.052;2022-09-12T01:48:37;8.98;;;4.38;;
74309;SDS011;62722;51.142;17.052;2022-09-12T01:52:20;6.82;;;4.30;;
74309;SDS011;62722;51.142;17.052;2022-09-12T01:54:19;7.82;;;4.40;;
74309;SDS011;62722;51.142;17.052;2022-09-12T01:56:53;8.02;;;4.30;;
74309;SDS011;62722;51.142;17.052;2022-09-12T01:59:27;6.82;;;4.38;;
74309;SDS011;62722;51.142;17.052;2022-09-12T02:01:59;7.90;;;4.50;;
74309;SDS011;62722;51.142;17.052;2022-09-12T02:04:34;7.18;;;3.80;;
74309;SDS011;62722;51.142;17.052;2022-09-12T02:07:07;7.40;;;4.65;;
74309;SDS011;62722;51.142;17.052;2022-09-12T02:09:41;9.40;;;4.60;;
74309;SDS011;62722;51.142;17.052;2022-09-12T02:12:14;6.65;;;3.92;;
74309;SDS011;62722;51.142;17.052;2022-09-12T02:14:48;6.50;;;4.10;;
74309;SDS011;62722;51.142;17.052;2022-09-12T02:17:21;7.47;;;4.10;;
74309;SDS011;62722;51.142;17.052;2022-09-12T02:19:56;7.30;;;5.00;;
74309;SDS011;62722;51.142;17.052;2022-09-12T02:22:28;7.47;;;4.15;;
74309;SDS011;62722;51.142;17.052;2022-09-12T02:24:58;6.97;;;4.28;;
74309;SDS011;62722;51.142;17.052;2022-09-12T02:27:31;8.27;;;4.18;;
74309;SDS011;62722;51.142;17.052;2022-09-12T02:30:08;8.13;;;4.32;;
74309;SDS011;62722;51.142;17.052;2022-09-12T02:32:40;6.95;;;4.50;;
74309;SDS011;62722;51.142;17.052;2022-09-12T02:35:15;6.82;;;4.18;;
74309;SDS011;62722;51.142;17.052;2022-09-12T02:37:53;7.00;;;4.68;;
74309;SDS011;62722;51.142;17.052;2022-09-12T02:40:25;7.53;;;4.30;;
74309;SDS011;62722;51.142;17.052;2022-09-12T02:42:53;6.88;;;4.80;;
74309;SDS011;62722;51.142;17.052;2022-09-12T02:45:21;7.50;;;4.55;;
74309;SDS011;62722;51.142;17.052;2022-09-12T02:47:49;6.40;;;4.40;;
74309;SDS011;62722;51.142;17.052;2022-09-12T02:50:24;8.00;;;4.80;;
74309;SDS011;62722;51.142;17.052;2022-09-12T02:52:52;7.28;;;4.60;;
74309;SDS011;62722;51.142;17.052;2022-09-12T02:55:24;8.07;;;4.30;;
74309;SDS011;62722;51.142;17.052;2022-09-12T02:57:52;7.93;;;4.15;;
74309;SDS011;62722;51.142;17.052;2022-09-12T03:00:19;5.75;;;4.50;;
74309;SDS011;62722;51.142;17.052;2022-09-12T03:02:53;7.35;;;4.25;;
74309;SDS011;62722;51.142;17.052;2022-09-12T03:05:36;5.88;;;3.83;;
74309;SDS011;62722;51.142;17.052;2022-09-12T03:08:20;7.05;;;4.03;;
74309;SDS011;62722;51.142;17.052;2022-09-12T03:13:59;7.90;;;4.45;;
74309;SDS011;62722;51.142;17.052;2022-09-12T03:16:39;6.95;;;4.38;;
74309;SDS011;62722;51.142;17.052;2022-09-12T03:19:16;8.32;;;4.68;;
74309;SDS011;62722;51.142;17.052;2022-09-12T03:21:52;6.93;;;4.47;;
74309;SDS011;62722;51.142;17.052;2022-09-12T03:24:28;7.10;;;4.25;;
74309;SDS011;62722;51.142;17.052;2022-09-12T03:26:59;6.50;;;4.40;;
74309;SDS011;62722;51.142;17.052;2022-09-12T03:29:33;8.13;;;4.80;;
74309;SDS011;62722;51.142;17.052;2022-09-12T03:32:02;6.65;;;4.65;;
74309;SDS011;62722;51.142;17.052;2022-09-12T03:34:30;7.60;;;4.43;;
74309;SDS011;62722;51.142;17.052;2022-09-12T03:36:58;9.32;;;4.72;;
74309;SDS011;62722;51.142;17.052;2022-09-12T03:39:26;8.63;;;4.85;;
74309;SDS011;62722;51.142;17.052;2022-09-12T03:41:54;6.85;;;4.40;;
74309;SDS011;62722;51.142;17.052;2022-09-12T03:44:21;6.85;;;4.40;;
74309;SDS011;62722;51.142;17.052;2022-09-12T03:46:49;6.57;;;4.45;;
74309;SDS011;62722;51.142;17.052;2022-09-12T03:49:17;7.25;;;4.82;;
74309;SDS011;62722;51.142;17.052;2022-09-12T03:51:44;7.20;;;4.25;;
74309;SDS011;62722;51.142;17.052;2022-09-12T03:54:13;7.32;;;4.85;;
74309;SDS011;62722;51.142;17.052;2022-09-12T03:56:40;6.32;;;4.22;;
74309;SDS011;62722;51.142;17.052;2022-09-12T03:59:08;8.40;;;5.75;;
74309;SDS011;62722;51.142;17.052;2022-09-12T04:01:35;6.85;;;4.40;;
74309;SDS011;62722;51.142;17.052;2022-09-12T04:04:03;9.32;;;4.72;;
74309;SDS011;62722;51.142;17.052;2022-09-12T04:06:30;8.07;;;4.20;;
74309;SDS011;62722;51.142;17.052;2022-09-12T04:08:57;7.32;;;4.57;;
74309;SDS011;62722;51.142;17.052;2022-09-12T04:11:26;8.90;;;4.40;;
74309;SDS011;62722;51.142;17.052;2022-09-12T04:13:54;7.57;;;4.38;;
74309;SDS011;62722;51.142;17.052;2022-09-12T04:16:21;7.53;;;4.90;;
74309;SDS011;62722;51.142;17.052;2022-09-12T04:18:48;7.45;;;4.70;;
74309;SDS011;62722;51.142;17.052;2022-09-12T04:21:16;8.25;;;4.22;;
74309;SDS011;62722;51.142;17.052;2022-09-12T04:23:46;7.72;;;4.25;;
74309;SDS011;62722;51.142;17.052;2022-09-12T04:26:14;6.60;;;4.40;;
74309;SDS011;62722;51.142;17.052;2022-09-12T04:28:44;10.98;;;5.07;;
74309;SDS011;62722;51.142;17.052;2022-09-12T04:31:13;5.00;;;4.03;;
74309;SDS011;62722;51.142;17.052;2022-09-12T04:33:42;6.30;;;4.28;;
74309;SDS011;62722;51.142;17.052;2022-09-12T04:36:11;7.57;;;4.43;;
74309;SDS011;62722;51.142;17.052;2022-09-12T04:38:41;7.85;;;4.75;;
74309;SDS011;62722;51.142;17.052;2022-09-12T04:41:09;6.82;;;4.80;;
74309;SDS011;62722;51.142;17.052;2022-09-12T04:43:37;9.82;;;4.53;;
74309;SDS011;62722;51.142;17.052;2022-09-12T04:46:06;8.88;;;4.60;;
74309;SDS011;62722;51.142;17.052;2022-09-12T04:48:34;7.00;;;4.43;;
74309;SDS011;62722;51.142;17.052;2022-09-12T04:51:08;7.32;;;4.50;;
74309;SDS011;62722;51.142;17.052;2022-09-12T04:53:36;7.68;;;4.82;;
74309;SDS011;62722;51.142;17.052;2022-09-12T04:56:04;8.75;;;4.65;;
74309;SDS011;62722;51.142;17.052;2022-09-12T04:58:34;10.18;;;4.93;;
74309;SDS011;62722;51.142;17.052;2022-09-12T05:01:02;6.78;;;4.60;;
74309;SDS011;62722;51.142;17.052;2022-09-12T05:03:33;8.73;;;5.03;;
74309;SDS011;62722;51.142;17.052;2022-09-12T05:06:03;8.40;;;5.13;;
74309;SDS011;62722;51.142;17.052;2022-09-12T05:08:31;11.13;;;5.00;;
74309;SDS011;62722;51.142;17.052;2022-09-12T05:11:00;8.25;;;4.60;;
74309;SDS011;62722;51.142;17.052;2022-09-12T05:13:29;7.97;;;4.55;;
74309;SDS011;62722;51.142;17.052;2022-09-12T05:15:57;7.65;;;4.63;;
74309;SDS011;62722;51.142;17.052;2022-09-12T05:18:25;7.38;;;4.60;;
74309;SDS011;62722;51.142;17.052;2022-09-12T05:20:54;10.07;;;4.60;;
74309;SDS011;62722;51.142;17.052;2022-09-12T05:23:24;7.22;;;4.60;;
74309;SDS011;62722;51.142;17.052;2022-09-12T05:25:52;5.90;;;4.43;;
74309;SDS011;62722;51.142;17.052;2022-09-12T05:28:21;8.70;;;5.10;;
74309;SDS011;62722;51.142;17.052;2022-09-12T05:30:58;9.63;;;4.90;;
74309;SDS011;62722;51.142;17.052;2022-09-12T05:33:26;8.20;;;4.97;;
74309;SDS011;62722;51.142;17.052;2022-09-12T05:35:55;7.15;;;4.85;;
74309;SDS011;62722;51.142;17.052;2022-09-12T05:38:23;8.38;;;4.78;;
74309;SDS011;62722;51.142;17.052;2022-09-12T05:40:50;13.32;;;5.55;;
74309;SDS011;62722;51.142;17.052;2022-09-12T05:43:17;8.38;;;4.43;;
74309;SDS011;62722;51.142;17.052;2022-09-12T05:45:45;7.22;;;4.97;;
74309;SDS011;62722;51.142;17.052;2022-09-12T05:48:13;7.32;;;4.97;;
74309;SDS011;62722;51.142;17.052;2022-09-12T05:50:40;7.20;;;5.15;;
74309;SDS011;62722;51.142;17.052;2022-09-12T05:53:09;6.53;;;4.70;;
74309;SDS011;62722;51.142;17.052;2022-09-12T05:55:36;9.48;;;4.57;;
74309;SDS011;62722;51.142;17.052;2022-09-12T05:58:06;8.05;;;4.40;;
74309;SDS011;62722;51.142;17.052;2022-09-12T06:00:33;8.13;;;4.75;;
74309;SDS011;62722;51.142;17.052;2022-09-12T06:03:01;9.10;;;5.15;;
74309;SDS011;62722;51.142;17.052;2022-09-12T06:05:28;7.57;;;4.25;;
74309;SDS011;62722;51.142;17.052;2022-09-12T06:07:57;8.55;;;4.65;;
74309;SDS011;62722;51.142;17.052;2022-09-12T06:10:26;9.23;;;4.55;;
74309;SDS011;62722;51.142;17.052;2022-09-12T06:12:54;7.03;;;4.70;;
74309;SDS011;62722;51.142;17.052;2022-09-12T06:15:21;7.63;;;4.22;;
74309;SDS011;62722;51.142;17.052;2022-09-12T06:17:49;6.47;;;4.18;;
74309;SDS011;62722;51.142;17.052;2022-09-12T06:20:16;6.68;;;4.57;;
74309;SDS011;62722;51.142;17.052;2022-09-12T06:22:45;8.20;;;4.57;;
74309;SDS011;62722;51.142;17.052;2022-09-12T06:25:12;6.13;;;4.32;;
74309;SDS011;62722;51.142;17.052;2022-09-12T06:27:41;8.70;;;4.10;;
74309;SDS011;62722;51.142;17.052;2022-09-12T06:30:09;7.03;;;3.97;;
74309;SDS011;62722;51.142;17.052;2022-09-12T06:32:37;6.13;;;3.75;;
74309;SDS011;62722;51.142;17.052;2022-09-12T06:35:04;7.47;;;3.60;;
74309;SDS011;62722;51.142;17.052;2022-09-12T06:37:32;6.70;;;3.75;;
74309;SDS011;62722;51.142;17.052;2022-09-12T06:40:00;7.13;;;3.60;;
74309;SDS011;62722;51.142;17.052;2022-09-12T06:42:27;6.93;;;3.45;;
74309;SDS011;62722;51.142;17.052;2022-09-12T06:44:56;6.07;;;3.30;;
74309;SDS011;62722;51.142;17.052;2022-09-12T06:47:23;8.88;;;3.58;;
74309;SDS011;62722;51.142;17.052;2022-09-12T06:49:51;5.00;;;3.45;;
74309;SDS011;62722;51.142;17.052;2022-09-12T06:52:18;7.32;;;3.40;;
74309;SDS011;62722;51.142;17.052;2022-09-12T06:54:45;4.80;;;3.50;;
74309;SDS011;62722;51.142;17.052;2022-09-12T06:57:12;7.22;;;3.75;;
74309;SDS011;62722;51.142;17.052;2022-09-12T06:59:40;5.63;;;3.45;;
74309;SDS011;62722;51.142;17.052;2022-09-12T07:02:08;5.97;;;3.00;;
74309;SDS011;62722;51.142;17.052;2022-09-12T07:04:36;5.38;;;2.63;;
74309;SDS011;62722;51.142;17.052;2022-09-12T07:07:04;5.43;;;3.22;;
74309;SDS011;62722;51.142;17.052;2022-09-12T07:09:31;6.40;;;3.10;;
74309;SDS011;62722;51.142;17.052;2022-09-12T07:11:58;5.65;;;2.95;;
74309;SDS011;62722;51.142;17.052;2022-09-12T07:14:28;6.47;;;3.78;;
74309;SDS011;62722;51.142;17.052;2022-09-12T07:16:56;6.50;;;3.58;;
74309;SDS011;62722;51.142;17.052;2022-09-12T07:19:25;8.35;;;3.72;;
74309;SDS011;62722;51.142;17.052;2022-09-12T07:21:52;4.78;;;2.80;;
74309;SDS011;62722;51.142;17.052;2022-09-12T07:24:19;8.63;;;3.03;;
74309;SDS011;62722;51.142;17.052;2022-09-12T07:26:47;5.68;;;3.17;;
74309;SDS011;62722;51.142;17.052;2022-09-12T07:29:14;4.90;;;3.00;;
74309;SDS011;62722;51.142;17.052;2022-09-12T07:31:42;5.57;;;2.80;;
74309;SDS011;62722;51.142;17.052;2022-09-12T07:34:10;5.15;;;2.80;;
74309;SDS011;62722;51.142;17.052;2022-09-12T07:36:39;3.95;;;2.90;;
74309;SDS011;62722;51.142;17.052;2022-09-12T07:39:07;5.60;;;2.45;;
74309;SDS011;62722;51.142;17.052;2022-09-12T07:41:34;3.85;;;2.50;;
74309;SDS011;62722;51.142;17.052;2022-09-12T07:44:01;5.22;;;2.75;;
74309;SDS011;62722;51.142;17.052;2022-09-12T07:46:31;4.15;;;2.38;;
74309;SDS011;62722;51.142;17.052;2022-09-12T07:49:01;6.88;;;2.85;;
74309;SDS011;62722;51.142;17.052;2022-09-12T07:51:29;5.03;;;2.72;;
74309;SDS011;62722;51.142;17.052;2022-09-12T07:53:58;4.75;;;2.60;;
74309;SDS011;62722;51.142;17.052;2022-09-12T07:56:26;4.13;;;2.45;;
74309;SDS011;62722;51.142;17.052;2022-09-12T07:58:54;3.72;;;2.50;;
74309;SDS011;62722;51.142;17.052;2022-09-12T08:01:22;4.50;;;2.40;;
74309;SDS011;62722;51.142;17.052;2022-09-12T08:03:52;5.20;;;2.53;;
74309;SDS011;62722;51.142;17.052;2022-09-12T08:08:49;5.32;;;2.47;;
74309;SDS011;62722;51.142;17.052;2022-09-12T08:11:19;4.47;;;2.50;;
74309;SDS011;62722;51.142;17.052;2022-09-12T08:13:47;4.68;;;2.35;;
74309;SDS011;62722;51.142;17.052;2022-09-12T08:16:17;5.85;;;2.42;;
74309;SDS011;62722;51.142;17.052;2022-09-12T08:18:46;5.15;;;2.60;;
74309;SDS011;62722;51.142;17.052;2022-09-12T08:21:15;3.40;;;2.42;;
74309;SDS011;62722;51.142;17.052;2022-09-12T08:23:44;7.18;;;2.92;;
74309;SDS011;62722;51.142;17.052;2022-09-12T08:26:12;4.93;;;2.80;;
74309;SDS011;62722;51.142;17.052;2022-09-12T08:28:42;5.88;;;2.80;;
74309;SDS011;62722;51.142;17.052;2022-09-12T08:31:12;4.60;;;2.55;;
74309;SDS011;62722;51.142;17.052;2022-09-12T08:33:40;4.53;;;2.80;;
74309;SDS011;62722;51.142;17.052;2022-09-12T08:36:09;5.53;;;2.80;;
74309;SDS011;62722;51.142;17.052;2022-09-12T08:38:38;4.50;;;2.75;;
74309;SDS011;62722;51.142;17.052;2022-09-12T08:41:08;5.05;;;2.50;;
74309;SDS011;62722;51.142;17.052;2022-09-12T08:43:46;5.18;;;2.78;;
74309;SDS011;62722;51.142;17.052;2022-09-12T08:46:35;5.15;;;2.50;;
74309;SDS011;62722;51.142;17.052;2022-09-12T08:49:07;4.13;;;2.30;;
74309;SDS011;62722;51.142;17.052;2022-09-12T08:51:36;3.95;;;2.58;;
74309;SDS011;62722;51.142;17.052;2022-09-12T08:54:08;4.63;;;2.40;;
74309;SDS011;62722;51.142;17.052;2022-09-12T08:56:44;3.58;;;2.10;;
74309;SDS011;62722;51.142;17.052;2022-09-12T08:59:15;4.43;;;2.40;;
74309;SDS011;62722;51.142;17.052;2022-09-12T09:01:42;4.93;;;2.58;;
74309;SDS011;62722;51.142;17.052;2022-09-12T09:10:06;3.53;;;2.40;;
74309;SDS011;62722;51.142;17.052;2022-09-12T09:12:42;3.40;;;1.92;;
74309;SDS011;62722;51.142;17.052;2022-09-12T09:15:29;3.80;;;2.33;;
74309;SDS011;62722;51.142;17.052;2022-09-12T09:18:07;4.90;;;2.75;;
74309;SDS011;62722;51.142;17.052;2022-09-12T09:20:43;4.90;;;2.80;;
74309;SDS011;62722;51.142;17.052;2022-09-12T09:23:17;7.38;;;3.08;;
74309;SDS011;62722;51.142;17.052;2022-09-12T09:25:49;4.93;;;2.70;;
74309;SDS011;62722;51.142;17.052;2022-09-12T09:28:20;4.00;;;2.45;;
74309;SDS011;62722;51.142;17.052;2022-09-12T09:30:52;5.28;;;2.67;;
74309;SDS011;62722;51.142;17.052;2022-09-12T09:33:21;6.38;;;2.70;;
74309;SDS011;62722;51.142;17.052;2022-09-12T09:35:55;5.82;;;3.03;;
74309;SDS011;62722;51.142;17.052;2022-09-12T09:41:07;4.90;;;2.63;;
74309;SDS011;62722;51.142;17.052;2022-09-12T09:43:48;4.28;;;2.90;;
74309;SDS011;62722;51.142;17.052;2022-09-12T09:46:17;4.85;;;2.78;;
74309;SDS011;62722;51.142;17.052;2022-09-12T09:48:44;5.97;;;2.70;;
74309;SDS011;62722;51.142;17.052;2022-09-12T09:51:15;4.40;;;2.45;;
74309;SDS011;62722;51.142;17.052;2022-09-12T09:53:51;5.90;;;2.92;;
74309;SDS011;62722;51.142;17.052;2022-09-12T09:56:26;4.68;;;2.60;;
74309;SDS011;62722;51.142;17.052;2022-09-12T09:58:54;4.93;;;2.92;;
74309;SDS011;62722;51.142;17.052;2022-09-12T10:01:24;4.25;;;2.70;;
74309;SDS011;62722;51.142;17.052;2022-09-12T10:03:53;6.63;;;3.03;;
74309;SDS011;62722;51.142;17.052;2022-09-12T10:06:25;5.55;;;2.92;;
74309;SDS011;62722;51.142;17.052;2022-09-12T10:09:05;5.43;;;2.90;;
74309;SDS011;62722;51.142;17.052;2022-09-12T10:11:43;5.32;;;2.58;;
74309;SDS011;62722;51.142;17.052;2022-09-12T10:14:24;5.45;;;2.80;;
74309;SDS011;62722;51.142;17.052;2022-09-12T10:17:01;4.05;;;2.10;;
74309;SDS011;62722;51.142;17.052;2022-09-12T10:19:33;4.35;;;2.70;;
74309;SDS011;62722;51.142;17.052;2022-09-12T10:22:02;4.05;;;2.53;;
74309;SDS011;62722;51.142;17.052;2022-09-12T10:24:31;4.03;;;2.15;;
74309;SDS011;62722;51.142;17.052;2022-09-12T10:27:08;4.07;;;2.00;;
74309;SDS011;62722;51.142;17.052;2022-09-12T10:29:42;3.80;;;1.90;;
74309;SDS011;62722;51.142;17.052;2022-09-12T10:32:17;5.03;;;2.22;;
74309;SDS011;62722;51.142;17.052;2022-09-12T10:34:55;4.00;;;2.03;;
74309;SDS011;62722;51.142;17.052;2022-09-12T10:37:28;3.30;;;1.77;;
74309;SDS011;62722;51.142;17.052;2022-09-12T10:39:58;3.83;;;2.20;;
74309;SDS011;62722;51.142;17.052;2022-09-12T10:45:22;4.50;;;1.88;;
74309;SDS011;62722;51.142;17.052;2022-09-12T10:47:53;3.95;;;2.28;;
74309;SDS011;62722;51.142;17.052;2022-09-12T10:50:27;4.18;;;2.03;;
74309;SDS011;62722;51.142;17.052;2022-09-12T10:53:13;3.20;;;1.98;;
74309;SDS011;62722;51.142;17.052;2022-09-12T10:56:00;2.63;;;1.65;;
74309;SDS011;62722;51.142;17.052;2022-09-12T10:58:50;3.70;;;2.33;;
74309;SDS011;62722;51.142;17.052;2022-09-12T11:01:35;2.95;;;1.85;;
74309;SDS011;62722;51.142;17.052;2022-09-12T11:04:13;4.07;;;2.00;;
74309;SDS011;62722;51.142;17.052;2022-09-12T11:06:54;3.78;;;1.95;;
74309;SDS011;62722;51.142;17.052;2022-09-12T11:09:31;4.13;;;2.20;;
74309;SDS011;62722;51.142;17.052;2022-09-12T11:12:07;4.10;;;2.20;;
74309;SDS011;62722;51.142;17.052;2022-09-12T11:14:45;4.95;;;2.30;;
74309;SDS011;62722;51.142;17.052;2022-09-12T11:17:24;4.35;;;2.30;;
74309;SDS011;62722;51.142;17.052;2022-09-12T11:20:11;5.15;;;2.33;;
74309;SDS011;62722;51.142;17.052;2022-09-12T11:22:59;3.90;;;2.00;;
74309;SDS011;62722;51.142;17.052;2022-09-12T11:25:49;3.67;;;2.17;;
74309;SDS011;62722;51.142;17.052;2022-09-12T11:28:28;4.75;;;2.10;;
74309;SDS011;62722;51.142;17.052;2022-09-12T11:31:11;4.93;;;2.30;;
74309;SDS011;62722;51.142;17.052;2022-09-12T11:33:51;4.13;;;2.50;;
74309;SDS011;62722;51.142;17.052;2022-09-12T11:36:27;4.93;;;2.20;;
74309;SDS011;62722;51.142;17.052;2022-09-12T11:39:06;3.05;;;2.10;;
74309;SDS011;62722;51.142;17.052;2022-09-12T11:41:40;2.50;;;1.90;;
74309;SDS011;62722;51.142;17.052;2022-09-12T11:44:11;4.28;;;2.00;;
74309;SDS011;62722;51.142;17.052;2022-09-12T11:46:44;4.80;;;2.13;;
74309;SDS011;62722;51.142;17.052;2022-09-12T11:51:54;3.60;;;2.17;;
74309;SDS011;62722;51.142;17.052;2022-09-12T11:54:27;4.38;;;2.08;;
74309;SDS011;62722;51.142;17.052;2022-09-12T11:57:02;2.88;;;1.75;;
74309;SDS011;62722;51.142;17.052;2022-09-12T11:59:40;3.40;;;2.20;;
74309;SDS011;62722;51.142;17.052;2022-09-12T12:02:11;4.03;;;2.08;;
74309;SDS011;62722;51.142;17.052;2022-09-12T12:04:53;4.32;;;2.22;;
74309;SDS011;62722;51.142;17.052;2022-09-12T12:07:29;4.10;;;2.30;;
74309;SDS011;62722;51.142;17.052;2022-09-12T12:10:03;3.92;;;2.00;;
74309;SDS011;62722;51.142;17.052;2022-09-12T12:12:31;4.13;;;2.20;;
74309;SDS011;62722;51.142;17.052;2022-09-12T12:14:59;3.83;;;2.60;;
74309;SDS011;62722;51.142;17.052;2022-09-12T12:17:27;3.10;;;2.08;;
74309;SDS011;62722;51.142;17.052;2022-09-12T12:19:58;3.88;;;2.30;;
74309;SDS011;62722;51.142;17.052;2022-09-12T12:22:29;3.17;;;2.08;;
74309;SDS011;62722;51.142;17.052;2022-09-12T12:25:15;3.45;;;2.28;;
74309;SDS011;62722;51.142;17.052;2022-09-12T12:27:51;4.15;;;2.55;;
74309;SDS011;62722;51.142;17.052;2022-09-12T12:36:40;4.95;;;2.00;;
74309;SDS011;62722;51.142;17.052;2022-09-12T12:42:10;4.65;;;2.38;;
74309;SDS011;62722;51.142;17.052;2022-09-12T12:51:28;3.22;;;2.00;;
74309;SDS011;62722;51.142;17.052;2022-09-12T12:57:02;3.97;;;2.17;;
74309;SDS011;62722;51.142;17.052;2022-09-12T12:59:46;4.18;;;2.38;;
74309;SDS011;62722;51.142;17.052;2022-09-12T13:02:17;4.10;;;1.73;;
74309;SDS011;62722;51.142;17.052;2022-09-12T13:04:52;4.40;;;2.30;;
74309;SDS011;62722;51.142;17.052;2022-09-12T13:07:23;5.85;;;2.25;;
74309;SDS011;62722;51.142;17.052;2022-09-12T13:09:55;3.30;;;2.00;;
74309;SDS011;62722;51.142;17.052;2022-09-12T13:12:25;2.75;;;1.83;;
74309;SDS011;62722;51.142;17.052;2022-09-12T13:14:57;3.83;;;2.00;;
74309;SDS011;62722;51.142;17.052;2022-09-12T13:17:30;3.65;;;1.92;;
74309;SDS011;62722;51.142;17.052;2022-09-12T13:20:14;3.33;;;2.08;;
74309;SDS011;62722;51.142;17.052;2022-09-12T13:22:46;4.32;;;1.73;;
74309;SDS011;62722;51.142;17.052;2022-09-12T13:25:19;3.83;;;2.10;;
74309;SDS011;62722;51.142;17.052;2022-09-12T13:27:59;5.60;;;2.10;;
74309;SDS011;62722;51.142;17.052;2022-09-12T13:30:33;4.18;;;1.92;;
74309;SDS011;62722;51.142;17.052;2022-09-12T13:33:12;3.67;;;1.90;;
74309;SDS011;62722;51.142;17.052;2022-09-12T13:35:53;4.00;;;1.90;;
74309;SDS011;62722;51.142;17.052;2022-09-12T13:38:32;3.65;;;1.75;;
74309;SDS011;62722;51.142;17.052;2022-09-12T13:41:18;4.20;;;2.10;;
74309;SDS011;62722;51.142;17.052;2022-09-12T13:43:56;3.10;;;2.00;;
74309;SDS011;62722;51.142;17.052;2022-09-12T13:46:26;3.58;;;2.13;;
74309;SDS011;62722;51.142;17.052;2022-09-12T13:48:57;4.85;;;2.20;;
74309;SDS011;62722;51.142;17.052;2022-09-12T13:51:28;4.03;;;2.13;;
74309;SDS011;62722;51.142;17.052;2022-09-12T13:53:58;3.15;;;2.00;;
74309;SDS011;62722;51.142;17.052;2022-09-12T13:56:30;4.30;;;2.10;;
74309;SDS011;62722;51.142;17.052;2022-09-12T13:58:58;3.45;;;2.00;;
74309;SDS011;62722;51.142;17.052;2022-09-12T14:01:37;3.58;;;2.28;;
74309;SDS011;62722;51.142;17.052;2022-09-12T14:04:12;3.13;;;1.98;;
74309;SDS011;62722;51.142;17.052;2022-09-12T14:06:59;3.90;;;2.15;;
74309;SDS011;62722;51.142;17.052;2022-09-12T14:09:36;3.65;;;2.20;;
74309;SDS011;62722;51.142;17.052;2022-09-12T14:12:09;4.93;;;2.28;;
74309;SDS011;62722;51.142;17.052;2022-09-12T14:14:47;3.97;;;2.20;;
74309;SDS011;62722;51.142;17.052;2022-09-12T14:17:22;4.18;;;1.98;;
74309;SDS011;62722;51.142;17.052;2022-09-12T14:19:54;3.45;;;2.10;;
74309;SDS011;62722;51.142;17.052;2022-09-12T14:22:24;3.75;;;2.25;;
74309;SDS011;62722;51.142;17.052;2022-09-12T14:24:54;4.85;;;2.45;;
74309;SDS011;62722;51.142;17.052;2022-09-12T14:27:23;4.05;;;2.10;;
74309;SDS011;62722;51.142;17.052;2022-09-12T14:29:55;3.80;;;1.90;;
74309;SDS011;62722;51.142;17.052;2022-09-12T14:32:28;3.10;;;2.00;;
74309;SDS011;62722;51.142;17.052;2022-09-12T14:35:03;3.88;;;2.00;;
74309;SDS011;62722;51.142;17.052;2022-09-12T14:37:31;3.75;;;2.15;;
74309;SDS011;62722;51.142;17.052;2022-09-12T14:39:59;3.08;;;2.20;;
74309;SDS011;62722;51.142;17.052;2022-09-12T14:42:28;4.28;;;2.58;;
74309;SDS011;62722;51.142;17.052;2022-09-12T14:45:00;4.00;;;2.40;;
74309;SDS011;62722;51.142;17.052;2022-09-12T14:47:33;5.68;;;2.53;;
74309;SDS011;62722;51.142;17.052;2022-09-12T14:50:11;5.72;;;2.30;;
74309;SDS011;62722;51.142;17.052;2022-09-12T14:52:42;3.28;;;2.20;;
74309;SDS011;62722;51.142;17.052;2022-09-12T14:55:19;4.13;;;2.30;;
74309;SDS011;62722;51.142;17.052;2022-09-12T14:58:05;3.10;;;2.15;;
74309;SDS011;62722;51.142;17.052;2022-09-12T15:00:50;4.32;;;2.10;;
74309;SDS011;62722;51.142;17.052;2022-09-12T15:03:24;5.50;;;2.35;;
74309;SDS011;62722;51.142;17.052;2022-09-12T15:05:53;4.55;;;2.80;;
74309;SDS011;62722;51.142;17.052;2022-09-12T15:08:21;5.20;;;3.00;;
74309;SDS011;62722;51.142;17.052;2022-09-12T15:10:48;4.70;;;2.50;;
74309;SDS011;62722;51.142;17.052;2022-09-12T15:13:17;5.25;;;2.60;;
74309;SDS011;62722;51.142;17.052;2022-09-12T15:18:15;5.18;;;2.22;;
74309;SDS011;62722;51.142;17.052;2022-09-12T15:20:46;6.05;;;2.60;;
74309;SDS011;62722;51.142;17.052;2022-09-12T15:26:03;3.50;;;2.13;;
74309;SDS011;62722;51.142;17.052;2022-09-12T15:28:31;4.18;;;2.40;;
74309;SDS011;62722;51.142;17.052;2022-09-12T15:31:03;3.78;;;2.20;;
74309;SDS011;62722;51.142;17.052;2022-09-12T15:33:33;4.90;;;2.50;;
74309;SDS011;62722;51.142;17.052;2022-09-12T15:36:02;4.18;;;2.40;;
74309;SDS011;62722;51.142;17.052;2022-09-12T15:38:38;3.45;;;2.42;;
74309;SDS011;62722;51.142;17.052;2022-09-12T15:41:08;5.07;;;2.22;;
74309;SDS011;62722;51.142;17.052;2022-09-12T15:43:37;4.22;;;2.42;;
74309;SDS011;62722;51.142;17.052;2022-09-12T15:46:05;5.30;;;2.25;;
74309;SDS011;62722;51.142;17.052;2022-09-12T15:48:32;4.20;;;2.45;;
74309;SDS011;62722;51.142;17.052;2022-09-12T15:51:00;3.80;;;2.70;;
74309;SDS011;62722;51.142;17.052;2022-09-12T15:53:29;4.07;;;2.75;;
74309;SDS011;62722;51.142;17.052;2022-09-12T15:55:57;3.13;;;2.30;;
74309;SDS011;62722;51.142;17.052;2022-09-12T15:58:24;4.68;;;2.70;;
74309;SDS011;62722;51.142;17.052;2022-09-12T16:00:52;4.55;;;2.60;;
74309;SDS011;62722;51.142;17.052;2022-09-12T16:03:21;3.63;;;2.20;;